Time;durP1;ratioP1;P1;durP2;ratioP2;P2;SDS_P1;SDS_P2;PMS_P1;PMS_P2;Temp;Humidity;BMP_temperature;BMP_pressure;BME280_temperature;BME280_humidity;BME280_pressure;Samples;Min_cycle;Max_cycle;Signal;HPM_P1;HPM_P2
2022/06/08 00:00:25;;;;;;;3.45;3.05;;;;;;;13.36;100.00;100339.50;4972919;23;20057;-83
2022/06/08 00:05:47;;;;;;;3.55;3.25;;;;;;;13.31;100.00;100344.13;5297720;23;20056;-84
2022/06/08 00:08:13;;;;;;;4.30;3.20;;;;;;;13.27;100.00;100340.69;5453916;23;20052;-81
2022/06/08 00:10:40;;;;;;;3.72;3.00;;;;;;;13.27;100.00;100340.69;4909148;29;20254;-80
2022/06/08 00:13:07;;;;;;;4.20;3.10;;;;;;;13.29;100.00;100338.88;4884096;29;20092;-81
2022/06/08 00:15:34;;;;;;;3.72;3.42;;;;;;;13.31;100.00;100346.78;4893768;29;20497;-80
2022/06/08 00:18:02;;;;;;;3.30;3.00;;;;;;;13.34;100.00;100339.56;4899296;29;20056;-80
2022/06/08 00:20:28;;;;;;;4.13;3.75;;;;;;;13.37;100.00;100335.91;4883014;29;20043;-81
2022/06/08 00:22:55;;;;;;;4.20;3.03;;;;;;;13.41;100.00;100343.72;4895143;29;20494;-81
2022/06/08 00:25:22;;;;;;;3.20;2.90;;;;;;;13.44;100.00;100346.25;4900599;29;20044;-80
2022/06/08 00:27:48;;;;;;;3.20;2.88;;;;;;;13.48;100.00;100350.53;4883727;29;20663;-81
2022/06/08 00:30:15;;;;;;;3.47;3.00;;;;;;;13.55;100.00;100345.00;4895272;29;20047;-81
2022/06/08 00:32:42;;;;;;;3.50;3.20;;;;;;;13.60;100.00;100340.38;4914554;29;20048;-80
2022/06/08 00:35:09;;;;;;;3.95;3.55;;;;;;;13.64;100.00;100336.69;4897073;29;20320;-81
2022/06/08 00:37:36;;;;;;;3.55;3.25;;;;;;;13.61;100.00;100335.00;4865128;29;20049;-81
2022/06/08 00:40:04;;;;;;;3.67;3.35;;;;;;;13.58;100.00;100340.44;4891803;29;20044;-81
2022/06/08 00:42:30;;;;;;;3.40;3.10;;;;;;;13.62;100.00;100342.06;4898042;29;20125;-81
2022/06/08 00:45:08;;;;;;;5.75;3.15;;;;;;;13.60;100.00;100338.56;4899790;29;20055;-81
2022/06/08 00:47:39;;;;;;;4.90;3.28;;;;;;;13.65;100.00;100339.28;4876619;29;20430;-81
2022/06/08 00:50:12;;;;;;;3.22;2.92;;;;;;;13.64;100.00;100339.34;4876562;29;20115;-82
2022/06/08 00:52:39;;;;;;;4.10;3.05;;;;;;;13.67;100.00;100337.44;4873593;29;20048;-80
2022/06/08 00:55:08;;;;;;;4.00;3.60;;;;;;;13.69;100.00;100340.00;4894999;29;20315;-80
2022/06/08 00:57:42;;;;;;;3.78;3.30;;;;;;;13.70;100.00;100339.94;4883954;29;20056;-81
2022/06/08 01:00:16;;;;;;;3.50;3.20;;;;;;;13.67;100.00;100334.78;4883467;29;20043;-81
2022/06/08 01:02:43;;;;;;;3.45;3.15;;;;;;;13.74;100.00;100336.28;4869204;29;20054;-79
2022/06/08 01:05:21;;;;;;;4.00;3.60;;;;;;;13.72;100.00;100330.16;4897637;29;20075;-83
2022/06/08 01:07:49;;;;;;;3.60;3.30;;;;;;;13.69;100.00;100330.25;4898105;29;20167;-82
2022/06/08 01:10:20;;;;;;;4.47;3.60;;;;;;;13.79;100.00;100336.97;4896618;29;20046;-81
2022/06/08 01:12:47;;;;;;;3.85;3.30;;;;;;;13.69;100.00;100335.56;4884182;29;20060;-81
2022/06/08 01:15:17;;;;;;;3.63;3.13;;;;;;;13.62;100.00;100335.84;4882392;29;20040;-80
2022/06/08 01:17:43;;;;;;;3.67;3.20;;;;;;;13.63;100.00;100334.97;4869477;29;20052;-81
2022/06/08 01:20:11;;;;;;;3.40;3.10;;;;;;;13.50;100.00;100334.53;4878864;29;20044;-80
2022/06/08 01:22:38;;;;;;;3.30;3.00;;;;;;;13.50;100.00;100327.44;4851113;29;20044;-81
2022/06/08 01:25:07;;;;;;;3.50;3.20;;;;;;;13.51;100.00;100328.31;4877039;29;20051;-81
2022/06/08 01:27:56;;;;;;;4.13;3.72;;;;;;;13.42;100.00;100323.34;4866351;29;20555;-81
2022/06/08 01:30:27;;;;;;;3.70;3.38;;;;;;;13.43;100.00;100320.63;4859840;29;20036;-83
2022/06/08 01:33:17;;;;;;;3.65;3.35;;;;;;;13.38;100.00;100332.38;4884541;29;20052;-81
2022/06/08 01:36:01;;;;;;;3.80;3.40;;;;;;;13.33;100.00;100323.69;4871651;29;20657;-81
2022/06/08 01:38:38;;;;;;;3.67;3.38;;;;;;;13.33;100.00;100323.69;4883540;29;20059;-81
2022/06/08 01:41:19;;;;;;;3.88;3.30;;;;;;;13.35;100.00;100324.50;4873918;29;20055;-81
2022/06/08 01:44:25;;;;;;;4.55;2.90;;;;;;;13.29;100.00;100315.00;4882459;29;20051;-83
2022/06/08 01:55:31;;;;;;;4.28;3.88;;;;;;;12.98;100.00;100307.25;4913351;29;20072;-82
2022/06/08 01:58:06;;;;;;;4.75;3.63;;;;;;;12.93;100.00;100301.25;4883451;29;20142;-82
2022/06/08 02:00:36;;;;;;;6.60;3.45;;;;;;;12.80;100.00;100307.91;4864201;29;20057;-82
2022/06/08 02:03:16;;;;;;;3.65;3.35;;;;;;;12.73;100.00;100317.00;4885214;29;20103;-82
2022/06/08 02:05:45;;;;;;;4.00;3.42;;;;;;;12.66;100.00;100303.09;4892725;29;20058;-82
2022/06/08 02:08:40;;;;;;;3.95;3.53;;;;;;;12.65;100.00;100304.88;4875226;29;20050;-81
2022/06/08 02:14:12;;;;;;;4.35;3.95;;;;;;;12.70;100.00;100294.13;4918144;29;20925;-83
2022/06/08 02:16:43;;;;;;;4.60;3.80;;;;;;;12.74;100.00;100297.50;4884893;29;20059;-81
2022/06/08 02:19:14;;;;;;;5.35;3.97;;;;;;;12.84;100.00;100307.72;4882023;29;20042;-83
2022/06/08 02:21:54;;;;;;;4.30;3.90;;;;;;;12.75;100.00;100296.59;4869589;29;20045;-83
2022/06/08 02:24:28;;;;;;;3.83;3.53;;;;;;;12.72;100.00;100302.88;4860105;29;20049;-83
2022/06/08 02:27:23;;;;;;;4.38;3.97;;;;;;;12.77;100.00;100302.69;4877927;29;20045;-83
2022/06/08 02:30:10;;;;;;;4.53;3.95;;;;;;;12.81;100.00;100301.69;4892655;29;20056;-82
2022/06/08 02:35:33;;;;;;;3.92;3.50;;;;;;;12.82;100.00;100300.75;4877763;29;20044;-82
2022/06/08 02:38:05;;;;;;;4.45;4.05;;;;;;;12.86;100.00;100308.56;4859459;29;20048;-82
2022/06/08 02:40:32;;;;;;;4.20;3.55;;;;;;;12.87;100.00;100299.69;4847794;29;20049;-83
2022/06/08 02:43:03;;;;;;;6.82;3.88;;;;;;;12.91;100.00;100296.00;4855615;29;20048;-84
2022/06/08 02:45:39;;;;;;;4.43;4.03;;;;;;;12.95;100.00;100292.34;4845141;29;20409;-84
2022/06/08 02:48:12;;;;;;;4.00;3.60;;;;;;;12.94;100.00;100297.66;4872041;29;20048;-83
2022/06/08 02:50:51;;;;;;;5.13;3.88;;;;;;;12.99;100.00;100295.72;4857348;29;20051;-81
2022/06/08 02:53:22;;;;;;;4.03;3.67;;;;;;;12.96;100.00;100298.50;4889879;29;20498;-84
2022/06/08 02:56:02;;;;;;;3.95;3.55;;;;;;;12.96;100.00;100304.66;4863043;29;20059;-83
2022/06/08 02:58:39;;;;;;;4.82;3.58;;;;;;;12.96;100.00;100295.84;4875182;29;20574;-83
2022/06/08 03:01:12;;;;;;;4.15;3.45;;;;;;;12.94;100.00;100303.81;4883065;29;20044;-84
2022/06/08 03:03:45;;;;;;;4.10;3.53;;;;;;;12.97;100.00;100313.47;4861109;29;20040;-82
2022/06/08 03:06:16;;;;;;;3.65;3.35;;;;;;;13.01;100.00;100308.91;4880783;29;20782;-83
2022/06/08 03:08:49;;;;;;;4.82;3.38;;;;;;;13.06;100.00;100314.94;4858958;29;20049;-83
2022/06/08 03:11:17;;;;;;;3.92;3.53;;;;;;;13.07;100.00;100306.91;4850024;29;20040;-84
2022/06/08 03:13:58;;;;;;;4.15;3.75;;;;;;;13.11;100.00;100303.22;4866359;29;20133;-81
2022/06/08 03:16:30;;;;;;;3.88;3.58;;;;;;;13.16;100.00;100311.88;4861566;29;20044;-85
2022/06/08 03:18:57;;;;;;;4.90;4.00;;;;;;;13.24;100.00;100306.34;4857606;29;20040;-83
2022/06/08 03:21:25;;;;;;;4.32;3.92;;;;;;;13.30;100.00;100306.13;4862315;29;20037;-83
2022/06/08 03:23:54;;;;;;;4.35;3.95;;;;;;;13.30;100.00;100316.72;4852877;29;20045;-82
2022/06/08 03:26:22;;;;;;;4.38;3.58;;;;;;;13.38;100.00;100319.97;4879188;29;20071;-83
2022/06/08 03:28:49;;;;;;;3.95;3.58;;;;;;;13.27;100.00;100308.84;4845822;29;20049;-83
2022/06/08 03:31:16;;;;;;;4.55;4.15;;;;;;;13.25;100.00;100313.38;4846872;29;20045;-84
2022/06/08 03:33:43;;;;;;;4.40;3.83;;;;;;;13.46;100.00;100319.69;4861788;29;20036;-82
2022/06/08 03:36:12;;;;;;;4.40;3.55;;;;;;;13.34;100.00;100310.38;4850912;29;20059;-83
2022/06/08 03:38:38;;;;;;;3.88;3.58;;;;;;;13.22;100.00;100317.00;4853308;29;20517;-84
2022/06/08 03:41:05;;;;;;;4.30;3.78;;;;;;;13.30;100.00;100308.78;4848231;29;20051;-83
2022/06/08 03:43:32;;;;;;;4.13;3.63;;;;;;;13.29;100.00;100314.13;4850779;29;20512;-83
2022/06/08 03:46:02;;;;;;;5.75;4.05;;;;;;;13.15;100.00;100320.78;4848814;29;20049;-84
2022/06/08 03:48:29;;;;;;;5.10;4.07;;;;;;;13.10;100.00;100321.84;4844808;29;20040;-84
2022/06/08 03:50:57;;;;;;;3.95;3.60;;;;;;;13.17;100.00;100307.44;4868061;29;20043;-84
2022/06/08 03:53:29;;;;;;;4.25;3.78;;;;;;;13.14;100.00;100313.75;4864921;29;20041;-83
2022/06/08 03:55:57;;;;;;;4.35;3.95;;;;;;;13.01;100.00;100322.19;4844133;29;20044;-83
2022/06/08 03:58:24;;;;;;;4.85;3.90;;;;;;;12.93;100.00;100325.97;4850832;29;20132;-84
2022/06/08 04:00:51;;;;;;;4.72;4.22;;;;;;;12.86;100.00;100329.78;4857602;29;20044;-83
2022/06/08 04:03:18;;;;;;;4.57;4.18;;;;;;;12.82;100.00;100325.50;4851612;29;20029;-83
2022/06/08 04:05:45;;;;;;;4.80;4.40;;;;;;;12.86;100.00;100327.13;4865193;29;20106;-84
2022/06/08 04:08:11;;;;;;;4.00;3.65;;;;;;;12.92;100.00;100326.03;4845379;29;20057;-83
2022/06/08 04:10:38;;;;;;;4.88;4.47;;;;;;;12.87;100.00;100323.56;4859666;29;20041;-84
2022/06/08 04:13:05;;;;;;;4.53;4.15;;;;;;;12.84;100.00;100315.69;4847898;29;20033;-83
2022/06/08 04:15:44;;;;;;;5.43;4.22;;;;;;;12.90;100.00;100326.09;4829080;29;20049;-83
2022/06/08 04:18:13;;;;;;;5.10;4.65;;;;;;;12.90;100.00;100322.56;4840458;29;20055;-83
2022/06/08 04:20:41;;;;;;;4.65;4.25;;;;;;;12.88;100.00;100316.47;4877109;29;20044;-84
2022/06/08 04:23:08;;;;;;;5.10;4.60;;;;;;;12.91;100.00;100319.84;4858754;29;20040;-84
2022/06/08 04:25:37;;;;;;;4.85;4.43;;;;;;;13.04;100.00;100314.13;4862841;29;20052;-83
2022/06/08 04:28:04;;;;;;;5.03;4.22;;;;;;;13.15;100.00;100317.25;4852875;29;20680;-84
2022/06/08 04:30:31;;;;;;;4.50;3.83;;;;;;;13.25;100.00;100302.75;4850731;29;20156;-85
2022/06/08 04:32:58;;;;;;;4.38;3.95;;;;;;;13.36;100.00;100305.88;4867344;29;20079;-83
2022/06/08 04:35:25;;;;;;;4.32;3.92;;;;;;;13.44;100.00;100317.06;4850609;29;20063;-85
2022/06/08 04:37:53;;;;;;;5.93;4.32;;;;;;;13.52;100.00;100308.81;4848625;29;20052;-83
2022/06/08 04:40:21;;;;;;;4.90;4.43;;;;;;;13.51;100.00;100313.25;4850973;29;20052;-86
2022/06/08 04:42:47;;;;;;;4.15;3.75;;;;;;;13.44;100.00;100306.44;4851006;29;20048;-82
2022/06/08 04:45:14;;;;;;;4.47;4.07;;;;;;;13.44;100.00;100310.88;4849898;29;20075;-82
2022/06/08 04:47:41;;;;;;;4.90;4.40;;;;;;;13.43;100.00;100310.03;4861009;29;20052;-84
2022/06/08 04:50:09;;;;;;;4.30;3.90;;;;;;;13.42;100.00;100307.44;4879979;29;20163;-84
2022/06/08 04:52:36;;;;;;;4.28;3.88;;;;;;;13.45;100.00;100305.53;4870219;29;20132;-84
2022/06/08 04:55:05;;;;;;;4.25;3.85;;;;;;;13.63;100.00;100303.09;4849927;29;20056;-83
2022/06/08 04:57:34;;;;;;;4.20;3.80;;;;;;;14.03;100.00;100308.56;4853790;29;20148;-83
2022/06/08 05:00:01;;;;;;;4.13;3.72;;;;;;;14.23;100.00;100298.94;4864981;29;20391;-83
2022/06/08 05:02:43;;;;;;;4.90;4.07;;;;;;;14.38;100.00;100306.28;4866252;29;20044;-83
2022/06/08 05:05:13;;;;;;;5.40;4.90;;;;;;;14.63;100.00;100306.13;4848584;29;20686;-83
2022/06/08 05:07:40;;;;;;;7.00;4.53;;;;;;;14.85;100.00;100311.38;4861164;29;20046;-85
2022/06/08 05:10:08;;;;;;;5.82;5.05;;;;;;;15.01;100.00;100307.09;4865970;29;20123;-83
2022/06/08 05:12:36;;;;;;;4.95;4.45;;;;;;;15.17;100.00;100307.28;4866392;29;20040;-84
2022/06/08 05:15:08;;;;;;;5.35;4.40;;;;;;;15.68;100.00;100300.53;4880429;29;20044;-83
2022/06/08 05:17:34;;;;;;;5.03;4.38;;;;;;;16.01;100.00;100306.91;4856487;29;20052;-84
2022/06/08 05:20:03;;;;;;;5.97;4.38;;;;;;;16.22;100.00;100312.13;4835561;29;20515;-83
2022/06/08 05:22:30;;;;;;;5.25;4.75;;;;;;;16.43;100.00;100311.06;4849075;29;20037;-85
2022/06/08 05:24:57;;;;;;;5.07;4.50;;;;;;;16.65;100.00;100312.63;4866314;29;20044;-84
2022/06/08 05:27:24;;;;;;;4.47;4.07;;;;;;;16.79;95.09;100315.50;4858265;29;20048;-83
2022/06/08 05:29:51;;;;;;;4.70;4.22;;;;;;;16.86;94.49;100301.75;4873990;29;20048;-83
2022/06/08 05:32:17;;;;;;;4.28;3.92;;;;;;;16.99;95.15;100306.47;4850141;29;20040;-82
2022/06/08 05:34:44;;;;;;;4.80;4.32;;;;;;;17.03;96.42;100308.03;4848745;29;20104;-85
2022/06/08 05:37:11;;;;;;;4.63;4.20;;;;;;;17.14;95.35;100294.97;4843020;29;20052;-84
2022/06/08 05:39:37;;;;;;;4.30;3.88;;;;;;;17.68;91.98;100292.91;4859711;29;20044;-85
2022/06/08 05:42:05;;;;;;;4.40;4.00;;;;;;;18.03;84.90;100290.09;4861313;29;20033;-83
2022/06/08 05:44:32;;;;;;;4.43;4.03;;;;;;;18.20;84.27;100287.31;4877178;29;20052;-81
2022/06/08 05:46:59;;;;;;;4.70;4.22;;;;;;;18.91;78.53;100289.34;4861336;29;20418;-82
2022/06/08 05:49:26;;;;;;;3.88;3.58;;;;;;;20.23;71.29;100280.03;4905931;29;20055;-82
2022/06/08 05:51:53;;;;;;;4.22;3.60;;;;;;;22.15;62.31;100271.88;4871143;29;20044;-80
2022/06/08 05:54:21;;;;;;;3.45;3.15;;;;;;;24.41;54.72;100274.63;4868216;29;20063;-81
2022/06/08 05:56:48;;;;;;;3.65;3.35;;;;;;;25.60;50.66;100280.50;4892933;29;20048;-82
2022/06/08 05:59:15;;;;;;;3.30;3.00;;;;;;;25.83;47.51;100277.63;4848667;29;20053;-81
2022/06/08 06:01:42;;;;;;;4.68;4.03;;;;;;;25.39;48.40;100288.69;4865227;29;20044;-81
2022/06/08 06:04:09;;;;;;;4.10;3.80;;;;;;;25.11;47.34;100292.94;4880500;29;20108;-82
2022/06/08 06:06:36;;;;;;;4.00;3.60;;;;;;;24.31;49.55;100295.25;4851757;29;20044;-81
2022/06/08 06:09:04;;;;;;;3.88;3.33;;;;;;;23.58;54.42;100296.72;4864068;29;20048;-82
2022/06/08 06:11:32;;;;;;;4.32;3.92;;;;;;;22.95;56.10;100292.72;4871899;29;20047;-82
2022/06/08 06:13:59;;;;;;;3.47;3.17;;;;;;;22.79;56.00;100293.06;4902639;29;20040;-82
2022/06/08 06:16:26;;;;;;;4.35;3.42;;;;;;;22.82;58.87;100292.81;4904268;29;20073;-82
2022/06/08 06:18:53;;;;;;;4.07;3.70;;;;;;;22.93;57.41;100292.84;4888307;29;20036;-82
2022/06/08 06:21:20;;;;;;;4.68;3.80;;;;;;;22.86;54.58;100293.44;4893412;29;20048;-83
2022/06/08 06:23:47;;;;;;;3.72;3.30;;;;;;;22.80;55.49;100294.78;4878333;29;20037;-82
2022/06/08 06:26:15;;;;;;;4.85;3.55;;;;;;;22.82;55.36;100294.66;4853757;29;20080;-81
2022/06/08 06:28:42;;;;;;;3.40;3.10;;;;;;;22.67;56.97;100296.66;4877637;29;20056;-83
2022/06/08 06:31:15;;;;;;;3.92;3.53;;;;;;;22.60;58.13;100292.72;4861705;29;20047;-81
2022/06/08 06:33:41;;;;;;;4.30;3.90;;;;;;;22.40;57.85;100295.09;4848246;29;20057;-82
2022/06/08 06:36:08;;;;;;;4.28;3.47;;;;;;;22.31;59.57;100290.44;4880021;29;20070;-83
2022/06/08 06:38:35;;;;;;;3.92;3.50;;;;;;;22.56;58.91;100293.94;4864066;29;20060;-82
2022/06/08 06:41:02;;;;;;;4.15;3.75;;;;;;;22.58;56.18;100300.06;4860042;29;20585;-82
2022/06/08 06:43:29;;;;;;;4.10;3.70;;;;;;;22.74;55.43;100293.41;4874331;29;20082;-82
2022/06/08 06:46:02;;;;;;;5.35;3.90;;;;;;;22.73;56.74;100291.69;4879535;29;20059;-82
2022/06/08 06:48:29;;;;;;;4.93;4.00;;;;;;;22.68;55.84;100293.00;4864594;29;20044;-82
2022/06/08 06:50:56;;;;;;;3.90;3.58;;;;;;;22.64;55.75;100289.69;4875068;29;20049;-82
2022/06/08 06:53:23;;;;;;;4.30;3.90;;;;;;;22.89;54.74;100288.69;4898334;29;20036;-82
2022/06/08 06:55:49;;;;;;;4.18;3.88;;;;;;;23.31;55.28;100286.31;4908611;29;20055;-82
2022/06/08 06:58:16;;;;;;;3.47;3.17;;;;;;;23.46;53.16;100286.94;4897780;29;20095;-83
2022/06/08 07:00:44;;;;;;;3.95;3.63;;;;;;;23.84;52.16;100284.69;4882641;29;20048;-82
2022/06/08 07:03:11;;;;;;;4.03;3.63;;;;;;;23.99;51.21;100281.72;4883624;29;20561;-83
2022/06/08 07:05:38;;;;;;;3.88;3.55;;;;;;;24.04;49.36;100284.91;4882855;29;20056;-83
2022/06/08 07:08:05;;;;;;;4.50;3.97;;;;;;;24.08;49.71;100283.66;4860354;29;20056;-83
2022/06/08 07:10:34;;;;;;;4.47;3.45;;;;;;;24.01;51.45;100280.63;4878891;29;20044;-83
2022/06/08 07:13:01;;;;;;;3.83;3.42;;;;;;;23.90;51.61;100282.50;4849866;29;20092;-83
2022/06/08 07:15:28;;;;;;;3.70;3.35;;;;;;;24.01;53.42;100279.75;4878182;29;20384;-82
2022/06/08 07:17:55;;;;;;;3.72;2.88;;;;;;;24.16;49.56;100283.91;4880104;29;20048;-82
2022/06/08 07:20:23;;;;;;;4.20;2.95;;;;;;;24.13;51.78;100284.13;4878067;29;20100;-83
2022/06/08 07:22:50;;;;;;;3.78;3.38;;;;;;;24.07;52.07;100285.53;4858248;29;20037;-81
2022/06/08 07:25:18;;;;;;;4.70;3.33;;;;;;;23.90;51.29;100279.78;4874536;29;20032;-83
2022/06/08 07:27:46;;;;;;;4.57;3.40;;;;;;;23.90;51.05;100280.66;4847177;29;20078;-83
2022/06/08 07:30:14;;;;;;;3.58;3.08;;;;;;;23.67;52.18;100277.13;4876610;29;20049;-83
2022/06/08 07:32:41;;;;;;;3.42;3.13;;;;;;;23.59;52.56;100280.44;4875943;29;20041;-82
2022/06/08 07:35:08;;;;;;;3.50;2.75;;;;;;;23.70;52.36;100274.16;4878228;29;20051;-83
2022/06/08 07:37:35;;;;;;;3.38;3.05;;;;;;;23.95;50.98;100274.88;4836600;29;20430;-82
2022/06/08 07:40:02;;;;;;;3.20;2.90;;;;;;;24.21;48.97;100280.78;4856947;29;20495;-82
2022/06/08 07:42:29;;;;;;;3.80;3.42;;;;;;;24.66;52.07;100282.38;4880465;29;20044;-82
2022/06/08 07:44:56;;;;;;;4.68;3.25;;;;;;;24.64;49.17;100278.09;4888918;29;20047;-82
2022/06/08 07:47:22;;;;;;;4.72;3.55;;;;;;;24.51;50.26;100275.56;4882069;29;20052;-82
2022/06/08 07:49:51;;;;;;;2.97;2.65;;;;;;;24.52;50.74;100274.56;4859799;29;20120;-82
2022/06/08 07:52:20;;;;;;;4.78;2.50;;;;;;;24.44;50.63;100271.66;4876959;29;20490;-83
2022/06/08 07:54:48;;;;;;;3.40;2.78;;;;;;;24.30;51.41;100270.13;4858782;29;20041;-82
2022/06/08 07:57:19;;;;;;;5.22;2.97;;;;;;;24.19;51.17;100275.53;4856319;29;20053;-82
2022/06/08 07:59:58;;;;;;;2.60;2.40;;;;;;;24.13;52.11;100271.53;4843025;29;20048;-83
2022/06/08 08:02:25;;;;;;;3.85;2.80;;;;;;;23.81;49.93;100268.78;4862206;29;20503;-82
2022/06/08 08:04:52;;;;;;;3.47;2.60;;;;;;;23.72;52.21;100271.38;4840710;29;20049;-82
2022/06/08 08:07:19;;;;;;;4.07;3.05;;;;;;;23.68;52.05;100270.75;4876712;29;20049;-83
2022/06/08 08:09:48;;;;;;;3.60;2.50;;;;;;;23.71;51.38;100273.22;4864804;29;20055;-83
2022/06/08 08:12:15;;;;;;;3.15;2.85;;;;;;;23.67;52.19;100274.44;4851481;29;20039;-83
2022/06/08 08:14:42;;;;;;;3.75;3.00;;;;;;;23.57;52.13;100265.34;4870426;29;20525;-83
2022/06/08 08:17:08;;;;;;;3.38;2.97;;;;;;;23.74;53.80;100261.31;4867040;29;20044;-83
2022/06/08 08:19:38;;;;;;;3.63;2.75;;;;;;;23.80;51.59;100258.97;4876940;29;20052;-83
2022/06/08 08:22:06;;;;;;;3.00;2.80;;;;;;;23.87;53.84;100262.84;4851712;29;20048;-83
2022/06/08 08:24:32;;;;;;;3.15;2.90;;;;;;;23.86;52.59;100266.53;4856209;29;20085;-82
2022/06/08 08:26:59;;;;;;;4.78;3.50;;;;;;;23.81;52.25;100267.91;4842374;29;20081;-83
2022/06/08 08:29:26;;;;;;;3.97;3.45;;;;;;;23.71;51.51;100266.94;4886839;29;20040;-82
2022/06/08 08:31:52;;;;;;;6.05;3.13;;;;;;;23.55;53.01;100273.56;4882427;29;20041;-82
2022/06/08 08:34:19;;;;;;;4.50;3.47;;;;;;;23.43;53.19;100268.28;4880882;29;20052;-83
2022/06/08 08:36:46;;;;;;;12.48;4.28;;;;;;;23.36;54.97;100269.75;4870966;29;20048;-83
2022/06/08 08:39:15;;;;;;;3.75;3.42;;;;;;;23.26;53.64;100272.31;4866418;29;20036;-86
2022/06/08 08:44:39;;;;;;;4.70;3.40;;;;;;;23.24;53.50;100268.91;4867863;29;20092;-82
2022/06/08 08:47:21;;;;;;;4.18;3.75;;;;;;;23.28;54.38;100270.34;4868608;29;20056;-82
2022/06/08 08:50:15;;;;;;;4.13;3.10;;;;;;;23.36;53.85;100265.22;4897927;29;20048;-82
2022/06/08 08:53:02;;;;;;;3.67;3.03;;;;;;;23.55;53.26;100257.38;4855008;29;20046;-84
2022/06/08 08:55:44;;;;;;;4.00;3.70;;;;;;;23.42;52.71;100262.03;4888261;29;20055;-85
2022/06/08 08:58:28;;;;;;;3.22;2.90;;;;;;;23.66;51.68;100256.53;4860849;29;20640;-83
2022/06/08 09:00:57;;;;;;;3.58;3.22;;;;;;;23.76;52.49;100251.25;4955063;24;20049;-83
2022/06/08 09:03:39;;;;;;;3.22;2.92;;;;;;;23.85;53.74;100250.47;4860522;29;20045;-82
2022/06/08 09:06:13;;;;;;;3.60;3.05;;;;;;;23.99;52.67;100255.59;4840911;29;20069;-81
2022/06/08 09:08:43;;;;;;;3.70;3.33;;;;;;;24.02;51.82;100255.34;4840419;29;20045;-81
2022/06/08 09:11:35;;;;;;;6.57;3.85;;;;;;;24.15;50.98;100247.94;4828254;29;20510;-82
2022/06/08 09:14:11;;;;;;;3.33;3.00;;;;;;;24.15;51.36;100245.25;4839065;29;20068;-82
2022/06/08 09:16:41;;;;;;;4.13;3.65;;;;;;;24.31;52.12;100238.56;4814039;29;20419;-81
2022/06/08 09:19:30;;;;;;;3.60;3.30;;;;;;;24.33;51.14;100240.19;4827334;29;20540;-85
2022/06/08 09:22:03;;;;;;;3.90;3.47;;;;;;;24.37;49.30;100238.06;4858957;29;20049;-82
2022/06/08 09:24:42;;;;;;;;;;;;;;;24.77;50.03;100234.66;4856022;29;20495;-82
2022/06/08 09:27:28;;;;;;;3.38;3.08;;;;;;;24.86;46.77;100231.16;4862191;29;19924;-82
2022/06/08 09:29:58;;;;;;;3.83;3.00;;;;;;;24.91;48.72;100229.78;4845499;29;20391;-82
2022/06/08 09:32:30;;;;;;;4.18;3.25;;;;;;;25.40;47.95;100216.53;4832214;29;20037;-82
2022/06/08 09:35:01;;;;;;;3.50;2.80;;;;;;;25.98;47.39;100230.19;4830944;29;20052;-83
2022/06/08 09:37:28;;;;;;;4.28;3.13;;;;;;;26.31;44.61;100216.22;4843757;29;20858;-82
2022/06/08 09:39:57;;;;;;;4.05;3.30;;;;;;;26.27;42.85;100219.38;4826949;29;20061;-83
2022/06/08 09:42:39;;;;;;;3.42;3.13;;;;;;;26.51;42.25;100214.41;4843370;29;20059;-82
2022/06/08 09:45:22;;;;;;;3.65;2.90;;;;;;;27.07;43.77;100210.00;4857035;29;20054;-83
2022/06/08 09:51:25;;;;;;;2.80;2.38;;;;;;;27.29;41.60;100209.66;4843411;29;20133;-83
2022/06/08 09:54:11;;;;;;;3.38;3.05;;;;;;;27.17;39.73;100206.28;4841613;29;20057;-83
2022/06/08 09:57:16;;;;;;;4.15;2.90;;;;;;;26.12;40.91;100204.56;4828517;29;20037;-83
2022/06/08 10:00:09;;;;;;;2.63;2.42;;;;;;;25.96;41.89;100195.16;4841674;29;20045;-83
2022/06/08 10:03:09;;;;;;;4.35;2.75;;;;;;;26.32;46.17;100190.88;4858283;29;20064;-82
2022/06/08 10:05:55;;;;;;;3.78;2.83;;;;;;;25.56;44.32;100195.22;4841596;29;20054;-82
2022/06/08 10:08:41;;;;;;;3.30;2.50;;;;;;;25.66;45.07;100193.38;4842779;29;20051;-82
2022/06/08 10:14:26;;;;;;;2.53;2.33;;;;;;;25.37;46.27;100190.59;4826224;29;20049;-81
2022/06/08 10:17:00;;;;;;;2.40;2.20;;;;;;;25.31;46.79;100179.47;4858657;29;20478;-82
2022/06/08 10:19:33;;;;;;;2.25;2.05;;;;;;;25.16;46.39;100173.59;4808833;29;20088;-82
2022/06/08 10:22:01;;;;;;;3.03;2.60;;;;;;;25.73;45.29;100164.81;4809223;29;20056;-82
2022/06/08 10:24:33;;;;;;;4.53;2.10;;;;;;;26.22;44.17;100165.66;4826169;29;20074;-82
2022/06/08 10:27:37;;;;;;;2.30;2.10;;;;;;;26.29;43.10;100166.78;4812095;29;20053;-82
2022/06/08 10:30:19;;;;;;;;;;;;;;;26.29;43.55;100153.25;4815706;29;20065;-83
2022/06/08 10:32:57;;;;;;;2.63;2.42;;;;;;;26.49;44.81;100164.09;4828037;29;19930;-84
2022/06/08 10:35:35;;;;;;;3.80;3.00;;;;;;;26.69;42.78;100156.75;4843022;29;20632;-81
2022/06/08 10:38:03;;;;;;;5.30;2.80;;;;;;;26.51;42.11;100162.94;4843016;29;20415;-84
2022/06/08 10:40:45;;;;;;;2.50;2.30;;;;;;;26.23;42.38;100155.66;4821214;29;20060;-82
2022/06/08 10:43:19;;;;;;;2.97;2.33;;;;;;;26.52;44.11;100151.09;4831635;29;20579;-82
2022/06/08 10:45:52;;;;;;;2.63;1.92;;;;;;;27.19;42.73;100151.88;4836061;29;20477;-82
2022/06/08 10:48:23;;;;;;;4.35;2.35;;;;;;;27.62;40.76;100145.78;4850059;29;20056;-80
2022/06/08 10:51:31;;;;;;;2.38;2.17;;;;;;;27.71;37.91;100138.59;4832494;29;20049;-82
2022/06/08 10:57:00;;;;;;;2.38;2.17;;;;;;;27.81;39.21;100143.94;4847190;29;20414;-84
2022/06/08 10:59:29;;;;;;;3.83;2.63;;;;;;;27.65;40.47;100133.75;4827534;29;20045;-86
2022/06/08 11:02:03;;;;;;;2.30;2.10;;;;;;;27.99;39.96;100134.78;4846284;29;20113;-81
2022/06/08 11:04:30;;;;;;;;;;;;;;;27.69;39.69;100135.19;4848256;29;20049;-82
2022/06/08 11:07:02;;;;;;;2.03;1.92;;;;;;;28.04;39.61;100129.75;4850901;29;19931;-83
2022/06/08 11:09:34;;;;;;;2.60;2.20;;;;;;;28.19;38.76;100140.06;4829513;29;20045;-82
2022/06/08 11:12:05;;;;;;;3.00;2.10;;;;;;;28.09;38.19;100121.16;4854742;29;20577;-84
2022/06/08 11:14:51;;;;;;;2.05;1.80;;;;;;;28.21;39.07;100127.16;4850062;29;20045;-83
2022/06/08 11:17:33;;;;;;;5.85;2.00;;;;;;;28.42;37.76;100111.41;4859234;29;20045;-85
2022/06/08 11:20:20;;;;;;;1.88;1.58;;;;;;;28.45;38.39;100107.50;4829612;29;20448;-84
2022/06/08 11:23:03;;;;;;;3.70;1.67;;;;;;;28.37;37.78;100107.47;4857647;29;20046;-82
2022/06/08 11:25:35;;;;;;;2.15;1.60;;;;;;;28.65;36.26;100106.25;4813448;29;20041;-83
2022/06/08 11:28:26;;;;;;;3.40;1.98;;;;;;;28.43;37.58;100112.25;4839700;29;20045;-84
2022/06/08 11:30:56;;;;;;;2.15;1.60;;;;;;;28.09;37.88;100113.00;4849318;29;20064;-82
2022/06/08 11:33:23;;;;;;;2.38;2.17;;;;;;;28.10;37.94;100113.84;4828328;29;20051;-83
2022/06/08 11:36:02;;;;;;;2.63;1.90;;;;;;;28.03;38.70;100103.59;4828102;29;20522;-82
2022/06/08 11:38:46;;;;;;;2.00;1.85;;;;;;;28.72;38.58;100103.75;4844802;29;20049;-86
2022/06/08 11:41:29;;;;;;;3.28;1.80;;;;;;;28.39;35.43;100100.00;4829023;29;20046;-82
2022/06/08 11:43:56;;;;;;;1.80;1.70;;;;;;;27.78;38.30;100109.84;4844213;29;20560;-84
2022/06/08 11:46:38;;;;;;;2.83;2.00;;;;;;;27.68;39.63;100106.34;4843072;29;20049;-82
2022/06/08 11:49:20;;;;;;;3.45;2.05;;;;;;;27.55;40.34;100100.41;4843314;29;20419;-83
2022/06/08 11:51:47;;;;;;;1.88;1.48;;;;;;;27.03;40.60;100094.72;4844232;29;20495;-82
2022/06/08 11:54:20;;;;;;;2.10;1.90;;;;;;;26.82;41.19;100092.22;4808853;29;20045;-83
2022/06/08 11:57:17;;;;;;;1.73;1.63;;;;;;;27.25;40.21;100096.19;4851694;29;20491;-82
2022/06/08 11:59:57;;;;;;;2.50;1.75;;;;;;;26.66;39.95;100090.19;4848322;29;20060;-82
2022/06/08 12:02:33;;;;;;;2.15;1.80;;;;;;;26.46;41.64;100086.66;4831072;29;20049;-82
2022/06/08 12:05:01;;;;;;;2.78;1.88;;;;;;;26.89;41.12;100085.22;4834756;29;20101;-82
2022/06/08 12:07:42;;;;;;;2.60;1.73;;;;;;;26.51;41.07;100078.97;4834467;29;20079;-82
2022/06/08 12:10:21;;;;;;;1.70;1.60;;;;;;;26.51;41.53;100083.53;4841969;29;20419;-81
2022/06/08 12:12:48;;;;;;;2.38;1.90;;;;;;;26.69;41.70;100070.06;4825658;29;20523;-82